sensor_id;sensor_type;location;lat;lon;timestamp;P1;durP1;ratioP1;P2;durP2;ratioP2
75608;SDS011;64194;51.044;13.780;2023-02-04T00:02:16;3.90;;;1.00;;
75608;SDS011;64194;51.044;13.780;2023-02-04T00:06:17;3.90;;;0.90;;
75608;SDS011;64194;51.044;13.780;2023-02-04T00:10:19;3.42;;;0.77;;
75608;SDS011;64194;51.044;13.780;2023-02-04T00:14:21;3.60;;;1.00;;
75608;SDS011;64194;51.044;13.780;2023-02-04T00:18:22;4.35;;;0.80;;
75608;SDS011;64194;51.044;13.780;2023-02-04T00:22:24;2.70;;;0.77;;
75608;SDS011;64194;51.044;13.780;2023-02-04T00:26:28;3.00;;;1.38;;
75608;SDS011;64194;51.044;13.780;2023-02-04T00:30:30;3.28;;;0.75;;
75608;SDS011;64194;51.044;13.780;2023-02-04T00:34:32;3.55;;;0.70;;
75608;SDS011;64194;51.044;13.780;2023-02-04T00:38:36;4.00;;;1.25;;
75608;SDS011;64194;51.044;13.780;2023-02-04T00:42:38;2.38;;;1.00;;
75608;SDS011;64194;51.044;13.780;2023-02-04T00:46:40;2.40;;;0.75;;
75608;SDS011;64194;51.044;13.780;2023-02-04T00:50:43;2.45;;;0.80;;
75608;SDS011;64194;51.044;13.780;2023-02-04T00:54:45;2.67;;;0.85;;
75608;SDS011;64194;51.044;13.780;2023-02-04T00:58:47;2.50;;;0.90;;
75608;SDS011;64194;51.044;13.780;2023-02-04T01:02:48;3.92;;;1.05;;
75608;SDS011;64194;51.044;13.780;2023-02-04T01:06:50;2.03;;;0.57;;
75608;SDS011;64194;51.044;13.780;2023-02-04T01:10:51;2.90;;;0.93;;
75608;SDS011;64194;51.044;13.780;2023-02-04T01:14:53;2.08;;;1.02;;
75608;SDS011;64194;51.044;13.780;2023-02-04T01:18:55;1.95;;;0.70;;
75608;SDS011;64194;51.044;13.780;2023-02-04T01:22:58;2.22;;;0.90;;
75608;SDS011;64194;51.044;13.780;2023-02-04T01:26:59;3.17;;;1.17;;
75608;SDS011;64194;51.044;13.780;2023-02-04T01:31:01;3.13;;;1.08;;
75608;SDS011;64194;51.044;13.780;2023-02-04T01:35:02;4.13;;;1.40;;
75608;SDS011;64194;51.044;13.780;2023-02-04T01:39:06;2.65;;;0.90;;
75608;SDS011;64194;51.044;13.780;2023-02-04T01:43:09;4.78;;;1.02;;
75608;SDS011;64194;51.044;13.780;2023-02-04T01:47:12;3.55;;;0.90;;
75608;SDS011;64194;51.044;13.780;2023-02-04T01:51:14;3.10;;;1.02;;
75608;SDS011;64194;51.044;13.780;2023-02-04T01:55:20;3.13;;;1.05;;
75608;SDS011;64194;51.044;13.780;2023-02-04T01:59:26;2.75;;;1.00;;
75608;SDS011;64194;51.044;13.780;2023-02-04T02:03:28;3.10;;;1.00;;
75608;SDS011;64194;51.044;13.780;2023-02-04T02:07:29;2.35;;;1.00;;
75608;SDS011;64194;51.044;13.780;2023-02-04T02:11:31;3.20;;;0.90;;
75608;SDS011;64194;51.044;13.780;2023-02-04T02:15:33;3.30;;;1.10;;
75608;SDS011;64194;51.044;13.780;2023-02-04T02:19:35;3.13;;;1.05;;
75608;SDS011;64194;51.044;13.780;2023-02-04T02:27:54;4.03;;;1.10;;
75608;SDS011;64194;51.044;13.780;2023-02-04T02:31:57;3.13;;;1.15;;
75608;SDS011;64194;51.044;13.780;2023-02-04T02:35:59;4.28;;;1.45;;
75608;SDS011;64194;51.044;13.780;2023-02-04T02:40:02;4.88;;;1.40;;
75608;SDS011;64194;51.044;13.780;2023-02-04T02:44:03;3.20;;;1.38;;
75608;SDS011;64194;51.044;13.780;2023-02-04T02:48:07;2.60;;;1.20;;
75608;SDS011;64194;51.044;13.780;2023-02-04T02:52:10;3.60;;;1.40;;
75608;SDS011;64194;51.044;13.780;2023-02-04T02:56:13;4.43;;;1.58;;
75608;SDS011;64194;51.044;13.780;2023-02-04T03:00:22;2.95;;;1.25;;
75608;SDS011;64194;51.044;13.780;2023-02-04T03:04:30;4.18;;;1.58;;
75608;SDS011;64194;51.044;13.780;2023-02-04T03:08:34;3.00;;;1.20;;
75608;SDS011;64194;51.044;13.780;2023-02-04T03:12:36;3.33;;;1.38;;
75608;SDS011;64194;51.044;13.780;2023-02-04T03:16:39;3.10;;;1.35;;
75608;SDS011;64194;51.044;13.780;2023-02-04T03:20:41;3.63;;;1.40;;
75608;SDS011;64194;51.044;13.780;2023-02-04T03:24:43;4.18;;;1.70;;
75608;SDS011;64194;51.044;13.780;2023-02-04T03:28:45;4.85;;;1.52;;
75608;SDS011;64194;51.044;13.780;2023-02-04T03:32:47;4.28;;;1.60;;
75608;SDS011;64194;51.044;13.780;2023-02-04T03:36:48;3.20;;;1.17;;
75608;SDS011;64194;51.044;13.780;2023-02-04T03:40:50;4.03;;;1.52;;
75608;SDS011;64194;51.044;13.780;2023-02-04T03:44:52;3.15;;;1.23;;
75608;SDS011;64194;51.044;13.780;2023-02-04T03:48:53;3.88;;;1.50;;
75608;SDS011;64194;51.044;13.780;2023-02-04T03:52:55;4.68;;;1.50;;
75608;SDS011;64194;51.044;13.780;2023-02-04T03:56:56;4.38;;;1.40;;
75608;SDS011;64194;51.044;13.780;2023-02-04T04:00:58;3.25;;;1.33;;
75608;SDS011;64194;51.044;13.780;2023-02-04T04:04:59;3.28;;;1.15;;
75608;SDS011;64194;51.044;13.780;2023-02-04T04:09:01;2.90;;;1.13;;
75608;SDS011;64194;51.044;13.780;2023-02-04T04:13:05;2.80;;;1.00;;
75608;SDS011;64194;51.044;13.780;2023-02-04T04:17:06;4.03;;;1.20;;
75608;SDS011;64194;51.044;13.780;2023-02-04T04:21:08;3.47;;;1.10;;
75608;SDS011;64194;51.044;13.780;2023-02-04T04:25:10;3.83;;;1.17;;
75608;SDS011;64194;51.044;13.780;2023-02-04T04:29:11;3.40;;;1.20;;
75608;SDS011;64194;51.044;13.780;2023-02-04T04:33:13;3.28;;;1.10;;
75608;SDS011;64194;51.044;13.780;2023-02-04T04:37:14;2.80;;;1.00;;
75608;SDS011;64194;51.044;13.780;2023-02-04T04:41:16;3.85;;;1.30;;
75608;SDS011;64194;51.044;13.780;2023-02-04T04:45:18;3.78;;;1.30;;
75608;SDS011;64194;51.044;13.780;2023-02-04T04:49:20;3.17;;;1.15;;
75608;SDS011;64194;51.044;13.780;2023-02-04T04:53:21;3.50;;;1.23;;
75608;SDS011;64194;51.044;13.780;2023-02-04T04:57:23;2.20;;;0.98;;
75608;SDS011;64194;51.044;13.780;2023-02-04T05:01:25;3.25;;;1.23;;
75608;SDS011;64194;51.044;13.780;2023-02-04T05:05:26;3.30;;;1.08;;
75608;SDS011;64194;51.044;13.780;2023-02-04T05:09:28;4.00;;;1.08;;
75608;SDS011;64194;51.044;13.780;2023-02-04T05:13:29;4.38;;;1.20;;
75608;SDS011;64194;51.044;13.780;2023-02-04T05:17:31;3.78;;;1.30;;
75608;SDS011;64194;51.044;13.780;2023-02-04T05:21:32;3.83;;;1.50;;
75608;SDS011;64194;51.044;13.780;2023-02-04T05:25:34;4.95;;;1.60;;
75608;SDS011;64194;51.044;13.780;2023-02-04T05:29:35;4.15;;;1.70;;
75608;SDS011;64194;51.044;13.780;2023-02-04T05:33:37;4.75;;;1.73;;
75608;SDS011;64194;51.044;13.780;2023-02-04T05:37:38;5.30;;;2.22;;
75608;SDS011;64194;51.044;13.780;2023-02-04T05:41:40;5.70;;;2.17;;
75608;SDS011;64194;51.044;13.780;2023-02-04T05:45:41;4.57;;;1.52;;
75608;SDS011;64194;51.044;13.780;2023-02-04T05:49:43;4.35;;;1.83;;
75608;SDS011;64194;51.044;13.780;2023-02-04T05:53:44;4.53;;;1.33;;
75608;SDS011;64194;51.044;13.780;2023-02-04T05:57:46;3.88;;;1.33;;
75608;SDS011;64194;51.044;13.780;2023-02-04T06:01:48;5.65;;;1.33;;
75608;SDS011;64194;51.044;13.780;2023-02-04T06:05:49;3.95;;;1.38;;
75608;SDS011;64194;51.044;13.780;2023-02-04T06:09:51;4.07;;;1.52;;
75608;SDS011;64194;51.044;13.780;2023-02-04T06:13:53;3.90;;;1.52;;
75608;SDS011;64194;51.044;13.780;2023-02-04T06:17:54;4.43;;;1.30;;
75608;SDS011;64194;51.044;13.780;2023-02-04T06:21:56;4.25;;;1.33;;
75608;SDS011;64194;51.044;13.780;2023-02-04T06:25:57;4.97;;;1.60;;
75608;SDS011;64194;51.044;13.780;2023-02-04T06:29:59;4.93;;;1.75;;
75608;SDS011;64194;51.044;13.780;2023-02-04T06:34:00;6.47;;;1.63;;
75608;SDS011;64194;51.044;13.780;2023-02-04T06:38:02;4.10;;;1.35;;
75608;SDS011;64194;51.044;13.780;2023-02-04T06:42:04;3.92;;;1.40;;
75608;SDS011;64194;51.044;13.780;2023-02-04T06:46:05;5.40;;;2.03;;
75608;SDS011;64194;51.044;13.780;2023-02-04T06:50:07;4.05;;;1.10;;
75608;SDS011;64194;51.044;13.780;2023-02-04T06:54:09;5.72;;;1.50;;
75608;SDS011;64194;51.044;13.780;2023-02-04T06:58:11;4.45;;;1.33;;
75608;SDS011;64194;51.044;13.780;2023-02-04T07:02:12;3.40;;;1.27;;
75608;SDS011;64194;51.044;13.780;2023-02-04T07:06:14;3.92;;;1.40;;
75608;SDS011;64194;51.044;13.780;2023-02-04T07:10:16;3.17;;;1.42;;
75608;SDS011;64194;51.044;13.780;2023-02-04T07:14:17;3.50;;;1.48;;
75608;SDS011;64194;51.044;13.780;2023-02-04T07:18:19;3.70;;;1.55;;
75608;SDS011;64194;51.044;13.780;2023-02-04T07:22:21;5.18;;;1.80;;
75608;SDS011;64194;51.044;13.780;2023-02-04T07:26:23;4.93;;;1.60;;
75608;SDS011;64194;51.044;13.780;2023-02-04T07:30:24;4.47;;;1.60;;
75608;SDS011;64194;51.044;13.780;2023-02-04T07:34:26;5.38;;;1.48;;
75608;SDS011;64194;51.044;13.780;2023-02-04T07:38:27;5.75;;;1.67;;
75608;SDS011;64194;51.044;13.780;2023-02-04T07:42:30;3.33;;;1.25;;
75608;SDS011;64194;51.044;13.780;2023-02-04T07:46:39;5.05;;;1.55;;
75608;SDS011;64194;51.044;13.780;2023-02-04T07:50:41;5.35;;;1.65;;
75608;SDS011;64194;51.044;13.780;2023-02-04T07:54:42;5.63;;;1.52;;
75608;SDS011;64194;51.044;13.780;2023-02-04T07:58:44;5.38;;;1.45;;
75608;SDS011;64194;51.044;13.780;2023-02-04T08:02:46;4.13;;;1.70;;
75608;SDS011;64194;51.044;13.780;2023-02-04T08:06:48;6.25;;;2.22;;
75608;SDS011;64194;51.044;13.780;2023-02-04T08:10:49;5.80;;;1.20;;
75608;SDS011;64194;51.044;13.780;2023-02-04T08:14:51;3.25;;;1.13;;
75608;SDS011;64194;51.044;13.780;2023-02-04T08:18:52;5.22;;;1.60;;
75608;SDS011;64194;51.044;13.780;2023-02-04T08:22:54;4.82;;;1.88;;
75608;SDS011;64194;51.044;13.780;2023-02-04T08:26:56;5.30;;;2.03;;
75608;SDS011;64194;51.044;13.780;2023-02-04T08:31:01;7.40;;;1.65;;
75608;SDS011;64194;51.044;13.780;2023-02-04T08:35:04;4.55;;;1.55;;
75608;SDS011;64194;51.044;13.780;2023-02-04T08:39:07;6.05;;;1.60;;
75608;SDS011;64194;51.044;13.780;2023-02-04T08:43:09;4.25;;;1.58;;
75608;SDS011;64194;51.044;13.780;2023-02-04T08:47:11;4.47;;;1.70;;
75608;SDS011;64194;51.044;13.780;2023-02-04T08:51:13;4.93;;;1.70;;
75608;SDS011;64194;51.044;13.780;2023-02-04T08:55:15;5.70;;;2.00;;
75608;SDS011;64194;51.044;13.780;2023-02-04T08:59:16;5.25;;;1.90;;
75608;SDS011;64194;51.044;13.780;2023-02-04T09:03:18;6.70;;;2.15;;
75608;SDS011;64194;51.044;13.780;2023-02-04T09:07:19;8.93;;;3.00;;
75608;SDS011;64194;51.044;13.780;2023-02-04T09:11:22;5.90;;;2.20;;
75608;SDS011;64194;51.044;13.780;2023-02-04T09:15:23;8.05;;;2.67;;
75608;SDS011;64194;51.044;13.780;2023-02-04T09:19:25;5.15;;;2.13;;
75608;SDS011;64194;51.044;13.780;2023-02-04T09:23:27;5.78;;;1.73;;
75608;SDS011;64194;51.044;13.780;2023-02-04T09:27:29;4.97;;;1.63;;
75608;SDS011;64194;51.044;13.780;2023-02-04T09:31:30;5.65;;;1.52;;
75608;SDS011;64194;51.044;13.780;2023-02-04T09:35:32;4.72;;;1.67;;
75608;SDS011;64194;51.044;13.780;2023-02-04T09:39:33;4.03;;;1.65;;
75608;SDS011;64194;51.044;13.780;2023-02-04T09:43:38;5.68;;;1.88;;
75608;SDS011;64194;51.044;13.780;2023-02-04T09:47:42;4.53;;;1.50;;
75608;SDS011;64194;51.044;13.780;2023-02-04T09:51:44;4.32;;;1.70;;
75608;SDS011;64194;51.044;13.780;2023-02-04T09:55:48;5.68;;;2.10;;
75608;SDS011;64194;51.044;13.780;2023-02-04T09:59:50;4.35;;;1.80;;
75608;SDS011;64194;51.044;13.780;2023-02-04T10:03:54;3.97;;;1.63;;
75608;SDS011;64194;51.044;13.780;2023-02-04T10:08:01;4.57;;;1.60;;
75608;SDS011;64194;51.044;13.780;2023-02-04T10:12:05;4.65;;;1.85;;
75608;SDS011;64194;51.044;13.780;2023-02-04T10:16:14;6.60;;;1.55;;
75608;SDS011;64194;51.044;13.780;2023-02-04T10:20:22;4.80;;;1.60;;
75608;SDS011;64194;51.044;13.780;2023-02-04T10:24:25;5.30;;;1.80;;
75608;SDS011;64194;51.044;13.780;2023-02-04T10:28:36;5.22;;;1.60;;
75608;SDS011;64194;51.044;13.780;2023-02-04T10:32:40;4.13;;;1.50;;
75608;SDS011;64194;51.044;13.780;2023-02-04T10:36:42;4.75;;;1.52;;
75608;SDS011;64194;51.044;13.780;2023-02-04T10:40:46;4.07;;;1.55;;
75608;SDS011;64194;51.044;13.780;2023-02-04T10:44:48;3.95;;;1.60;;
75608;SDS011;64194;51.044;13.780;2023-02-04T10:48:49;4.40;;;1.67;;
75608;SDS011;64194;51.044;13.780;2023-02-04T10:52:52;5.03;;;1.85;;
75608;SDS011;64194;51.044;13.780;2023-02-04T10:57:16;4.43;;;2.13;;
75608;SDS011;64194;51.044;13.780;2023-02-04T11:01:21;5.35;;;2.17;;
75608;SDS011;64194;51.044;13.780;2023-02-04T11:05:24;4.85;;;1.83;;
75608;SDS011;64194;51.044;13.780;2023-02-04T11:09:30;4.93;;;2.05;;
75608;SDS011;64194;51.044;13.780;2023-02-04T11:17:40;4.15;;;1.80;;
75608;SDS011;64194;51.044;13.780;2023-02-04T11:21:43;6.60;;;2.75;;
75608;SDS011;64194;51.044;13.780;2023-02-04T11:25:46;3.67;;;1.80;;
75608;SDS011;64194;51.044;13.780;2023-02-04T11:29:49;5.65;;;2.00;;
75608;SDS011;64194;51.044;13.780;2023-02-04T11:38:25;5.18;;;1.45;;
75608;SDS011;64194;51.044;13.780;2023-02-04T11:42:39;4.43;;;1.75;;
75608;SDS011;64194;51.044;13.780;2023-02-04T11:46:42;5.18;;;2.15;;
75608;SDS011;64194;51.044;13.780;2023-02-04T11:50:54;4.88;;;2.00;;
75608;SDS011;64194;51.044;13.780;2023-02-04T11:54:58;4.88;;;2.00;;
75608;SDS011;64194;51.044;13.780;2023-02-04T11:59:00;5.18;;;1.58;;
75608;SDS011;64194;51.044;13.780;2023-02-04T12:03:03;4.05;;;1.55;;
75608;SDS011;64194;51.044;13.780;2023-02-04T12:07:23;5.30;;;1.73;;
75608;SDS011;64194;51.044;13.780;2023-02-04T12:11:27;6.32;;;2.03;;
75608;SDS011;64194;51.044;13.780;2023-02-04T12:15:34;5.13;;;2.08;;
75608;SDS011;64194;51.044;13.780;2023-02-04T12:19:37;4.85;;;1.42;;
75608;SDS011;64194;51.044;13.780;2023-02-04T12:23:38;5.00;;;1.70;;
75608;SDS011;64194;51.044;13.780;2023-02-04T12:27:40;2.72;;;1.20;;
75608;SDS011;64194;51.044;13.780;2023-02-04T12:31:42;3.53;;;1.20;;
75608;SDS011;64194;51.044;13.780;2023-02-04T12:35:44;2.70;;;1.02;;
75608;SDS011;64194;51.044;13.780;2023-02-04T12:39:45;4.70;;;1.40;;
75608;SDS011;64194;51.044;13.780;2023-02-04T12:43:47;3.80;;;1.30;;
75608;SDS011;64194;51.044;13.780;2023-02-04T12:47:50;3.78;;;1.25;;
75608;SDS011;64194;51.044;13.780;2023-02-04T12:51:52;4.93;;;1.15;;
75608;SDS011;64194;51.044;13.780;2023-02-04T12:55:53;4.13;;;1.15;;
75608;SDS011;64194;51.044;13.780;2023-02-04T12:59:58;2.92;;;1.10;;
75608;SDS011;64194;51.044;13.780;2023-02-04T13:04:02;4.55;;;1.05;;
75608;SDS011;64194;51.044;13.780;2023-02-04T13:08:03;4.82;;;1.40;;
75608;SDS011;64194;51.044;13.780;2023-02-04T13:12:05;3.35;;;1.20;;
75608;SDS011;64194;51.044;13.780;2023-02-04T13:16:06;5.13;;;1.52;;
75608;SDS011;64194;51.044;13.780;2023-02-04T13:20:09;3.28;;;1.02;;
75608;SDS011;64194;51.044;13.780;2023-02-04T13:24:11;3.03;;;0.80;;
75608;SDS011;64194;51.044;13.780;2023-02-04T13:28:12;2.53;;;0.80;;
75608;SDS011;64194;51.044;13.780;2023-02-04T13:32:14;2.70;;;0.90;;
75608;SDS011;64194;51.044;13.780;2023-02-04T13:36:16;2.75;;;0.80;;
75608;SDS011;64194;51.044;13.780;2023-02-04T13:40:18;2.45;;;0.70;;
75608;SDS011;64194;51.044;13.780;2023-02-04T13:44:20;2.95;;;0.82;;
75608;SDS011;64194;51.044;13.780;2023-02-04T13:48:21;2.25;;;0.70;;
75608;SDS011;64194;51.044;13.780;2023-02-04T13:52:24;3.10;;;1.20;;
75608;SDS011;64194;51.044;13.780;2023-02-04T13:56:26;3.42;;;1.10;;
75608;SDS011;64194;51.044;13.780;2023-02-04T14:00:28;3.03;;;0.70;;
75608;SDS011;64194;51.044;13.780;2023-02-04T14:04:29;2.05;;;0.85;;
75608;SDS011;64194;51.044;13.780;2023-02-04T14:08:31;3.47;;;0.88;;
75608;SDS011;64194;51.044;13.780;2023-02-04T14:12:33;2.78;;;0.82;;
75608;SDS011;64194;51.044;13.780;2023-02-04T14:16:34;3.00;;;0.95;;
75608;SDS011;64194;51.044;13.780;2023-02-04T14:20:38;2.70;;;0.80;;
75608;SDS011;64194;51.044;13.780;2023-02-04T14:24:39;2.47;;;0.65;;
75608;SDS011;64194;51.044;13.780;2023-02-04T14:28:43;2.20;;;0.70;;
75608;SDS011;64194;51.044;13.780;2023-02-04T14:32:44;2.85;;;0.80;;
75608;SDS011;64194;51.044;13.780;2023-02-04T14:36:46;2.55;;;0.80;;
75608;SDS011;64194;51.044;13.780;2023-02-04T14:40:48;2.80;;;0.85;;
75608;SDS011;64194;51.044;13.780;2023-02-04T14:44:49;2.50;;;0.73;;
75608;SDS011;64194;51.044;13.780;2023-02-04T14:48:51;3.35;;;1.10;;
75608;SDS011;64194;51.044;13.780;2023-02-04T14:52:53;3.08;;;1.02;;
75608;SDS011;64194;51.044;13.780;2023-02-04T14:56:57;1.85;;;0.77;;
75608;SDS011;64194;51.044;13.780;2023-02-04T15:00:58;3.80;;;0.60;;
75608;SDS011;64194;51.044;13.780;2023-02-04T15:05:00;2.60;;;0.88;;
75608;SDS011;64194;51.044;13.780;2023-02-04T15:09:02;3.10;;;0.93;;
75608;SDS011;64194;51.044;13.780;2023-02-04T15:13:04;3.78;;;1.20;;
75608;SDS011;64194;51.044;13.780;2023-02-04T15:17:05;3.83;;;0.93;;
75608;SDS011;64194;51.044;13.780;2023-02-04T15:21:07;2.85;;;1.00;;
75608;SDS011;64194;51.044;13.780;2023-02-04T15:25:13;3.80;;;0.82;;
75608;SDS011;64194;51.044;13.780;2023-02-04T15:33:16;3.60;;;0.80;;
75608;SDS011;64194;51.044;13.780;2023-02-04T15:37:18;3.70;;;1.15;;
75608;SDS011;64194;51.044;13.780;2023-02-04T15:41:20;2.08;;;0.50;;
75608;SDS011;64194;51.044;13.780;2023-02-04T15:45:23;3.80;;;0.68;;
75608;SDS011;64194;51.044;13.780;2023-02-04T15:49:24;3.63;;;0.60;;
75608;SDS011;64194;51.044;13.780;2023-02-04T15:53:26;1.50;;;0.50;;
75608;SDS011;64194;51.044;13.780;2023-02-04T15:57:27;1.70;;;0.55;;
75608;SDS011;64194;51.044;13.780;2023-02-04T16:01:29;3.13;;;0.93;;
75608;SDS011;64194;51.044;13.780;2023-02-04T16:05:31;3.17;;;0.60;;
75608;SDS011;64194;51.044;13.780;2023-02-04T16:09:33;4.38;;;1.00;;
75608;SDS011;64194;51.044;13.780;2023-02-04T16:13:35;4.55;;;1.27;;
75608;SDS011;64194;51.044;13.780;2023-02-04T16:17:37;3.13;;;1.02;;
75608;SDS011;64194;51.044;13.780;2023-02-04T16:21:39;6.68;;;1.20;;
75608;SDS011;64194;51.044;13.780;2023-02-04T16:25:41;3.22;;;0.95;;
75608;SDS011;64194;51.044;13.780;2023-02-04T16:29:42;3.80;;;0.90;;
75608;SDS011;64194;51.044;13.780;2023-02-04T16:33:44;4.50;;;1.10;;
75608;SDS011;64194;51.044;13.780;2023-02-04T16:37:45;4.00;;;0.82;;
75608;SDS011;64194;51.044;13.780;2023-02-04T16:41:47;6.03;;;1.77;;
75608;SDS011;64194;51.044;13.780;2023-02-04T16:45:49;6.13;;;1.42;;
75608;SDS011;64194;51.044;13.780;2023-02-04T16:49:51;5.65;;;1.35;;
75608;SDS011;64194;51.044;13.780;2023-02-04T16:53:54;5.10;;;1.50;;
75608;SDS011;64194;51.044;13.780;2023-02-04T16:57:56;4.35;;;1.30;;
75608;SDS011;64194;51.044;13.780;2023-02-04T17:01:57;3.40;;;1.50;;
75608;SDS011;64194;51.044;13.780;2023-02-04T17:06:01;6.75;;;1.60;;
75608;SDS011;64194;51.044;13.780;2023-02-04T17:10:02;5.18;;;1.23;;
75608;SDS011;64194;51.044;13.780;2023-02-04T17:14:06;6.05;;;1.70;;
75608;SDS011;64194;51.044;13.780;2023-02-04T17:18:10;4.82;;;1.30;;
75608;SDS011;64194;51.044;13.780;2023-02-04T17:22:11;6.75;;;1.58;;
75608;SDS011;64194;51.044;13.780;2023-02-04T17:26:13;5.13;;;1.40;;
75608;SDS011;64194;51.044;13.780;2023-02-04T17:30:15;5.25;;;1.63;;
75608;SDS011;64194;51.044;13.780;2023-02-04T17:34:20;5.18;;;2.10;;
75608;SDS011;64194;51.044;13.780;2023-02-04T17:38:22;7.03;;;1.85;;
75608;SDS011;64194;51.044;13.780;2023-02-04T17:42:27;5.07;;;1.83;;
75608;SDS011;64194;51.044;13.780;2023-02-04T17:46:29;5.65;;;1.88;;
75608;SDS011;64194;51.044;13.780;2023-02-04T17:50:31;4.25;;;1.70;;
75608;SDS011;64194;51.044;13.780;2023-02-04T17:54:37;4.00;;;1.88;;
75608;SDS011;64194;51.044;13.780;2023-02-04T17:58:39;6.95;;;1.92;;
75608;SDS011;64194;51.044;13.780;2023-02-04T18:02:45;9.35;;;2.70;;
75608;SDS011;64194;51.044;13.780;2023-02-04T18:06:48;6.20;;;1.83;;
75608;SDS011;64194;51.044;13.780;2023-02-04T18:10:53;5.00;;;2.15;;
75608;SDS011;64194;51.044;13.780;2023-02-04T18:14:57;5.88;;;1.98;;
75608;SDS011;64194;51.044;13.780;2023-02-04T18:19:21;6.30;;;1.80;;
75608;SDS011;64194;51.044;13.780;2023-02-04T18:23:22;4.47;;;1.80;;
75608;SDS011;64194;51.044;13.780;2023-02-04T18:27:25;4.45;;;1.80;;
75608;SDS011;64194;51.044;13.780;2023-02-04T18:35:36;4.85;;;1.60;;
75608;SDS011;64194;51.044;13.780;2023-02-04T18:39:41;5.03;;;2.22;;
75608;SDS011;64194;51.044;13.780;2023-02-04T18:43:43;5.63;;;1.90;;
75608;SDS011;64194;51.044;13.780;2023-02-04T18:47:54;4.32;;;1.65;;
75608;SDS011;64194;51.044;13.780;2023-02-04T18:51:57;5.93;;;1.83;;
75608;SDS011;64194;51.044;13.780;2023-02-04T18:56:00;7.78;;;2.05;;
75608;SDS011;64194;51.044;13.780;2023-02-04T19:04:21;6.18;;;2.10;;
75608;SDS011;64194;51.044;13.780;2023-02-04T19:12:30;5.95;;;2.60;;
75608;SDS011;64194;51.044;13.780;2023-02-04T19:16:33;7.85;;;2.72;;
75608;SDS011;64194;51.044;13.780;2023-02-04T19:20:37;4.90;;;2.05;;
75608;SDS011;64194;51.044;13.780;2023-02-04T19:24:39;8.55;;;3.17;;
75608;SDS011;64194;51.044;13.780;2023-02-04T19:28:41;7.88;;;2.95;;
75608;SDS011;64194;51.044;13.780;2023-02-04T19:32:43;7.30;;;2.97;;
75608;SDS011;64194;51.044;13.780;2023-02-04T19:36:46;7.78;;;3.15;;
75608;SDS011;64194;51.044;13.780;2023-02-04T19:40:47;8.35;;;2.90;;
75608;SDS011;64194;51.044;13.780;2023-02-04T19:44:53;8.63;;;3.53;;
75608;SDS011;64194;51.044;13.780;2023-02-04T19:48:58;8.02;;;3.42;;
75608;SDS011;64194;51.044;13.780;2023-02-04T19:53:00;7.38;;;2.83;;
75608;SDS011;64194;51.044;13.780;2023-02-04T19:57:34;8.68;;;3.05;;
75608;SDS011;64194;51.044;13.780;2023-02-04T20:01:35;7.85;;;2.90;;
75608;SDS011;64194;51.044;13.780;2023-02-04T20:05:37;7.65;;;2.40;;
75608;SDS011;64194;51.044;13.780;2023-02-04T20:09:38;8.02;;;2.80;;
75608;SDS011;64194;51.044;13.780;2023-02-04T20:13:41;8.18;;;3.08;;
75608;SDS011;64194;51.044;13.780;2023-02-04T20:17:43;6.65;;;2.72;;
75608;SDS011;64194;51.044;13.780;2023-02-04T20:21:59;5.63;;;2.22;;
75608;SDS011;64194;51.044;13.780;2023-02-04T20:26:09;6.57;;;2.55;;
75608;SDS011;64194;51.044;13.780;2023-02-04T20:34:21;6.47;;;2.40;;
75608;SDS011;64194;51.044;13.780;2023-02-04T20:38:24;5.90;;;2.40;;
75608;SDS011;64194;51.044;13.780;2023-02-04T20:42:31;5.47;;;2.50;;
75608;SDS011;64194;51.044;13.780;2023-02-04T20:46:35;5.47;;;2.25;;
75608;SDS011;64194;51.044;13.780;2023-02-04T20:50:38;5.97;;;2.72;;
75608;SDS011;64194;51.044;13.780;2023-02-04T20:54:48;5.80;;;2.10;;
75608;SDS011;64194;51.044;13.780;2023-02-04T20:58:51;6.35;;;2.55;;
75608;SDS011;64194;51.044;13.780;2023-02-04T21:02:57;5.13;;;1.90;;
75608;SDS011;64194;51.044;13.780;2023-02-04T21:07:18;6.03;;;1.90;;
75608;SDS011;64194;51.044;13.780;2023-02-04T21:11:21;5.53;;;1.90;;
75608;SDS011;64194;51.044;13.780;2023-02-04T21:15:23;4.75;;;1.55;;
75608;SDS011;64194;51.044;13.780;2023-02-04T21:19:26;6.10;;;2.22;;
75608;SDS011;64194;51.044;13.780;2023-02-04T21:23:28;5.03;;;1.70;;
75608;SDS011;64194;51.044;13.780;2023-02-04T21:27:29;4.40;;;1.65;;
75608;SDS011;64194;51.044;13.780;2023-02-04T21:31:31;4.90;;;1.45;;
75608;SDS011;64194;51.044;13.780;2023-02-04T21:35:33;5.00;;;1.77;;
75608;SDS011;64194;51.044;13.780;2023-02-04T21:39:35;5.95;;;1.70;;
75608;SDS011;64194;51.044;13.780;2023-02-04T21:43:37;4.95;;;1.75;;
75608;SDS011;64194;51.044;13.780;2023-02-04T21:47:38;4.25;;;1.40;;
75608;SDS011;64194;51.044;13.780;2023-02-04T21:51:40;6.80;;;1.55;;
75608;SDS011;64194;51.044;13.780;2023-02-04T21:55:41;4.93;;;1.55;;
75608;SDS011;64194;51.044;13.780;2023-02-04T21:59:43;4.55;;;1.35;;
75608;SDS011;64194;51.044;13.780;2023-02-04T22:03:48;3.72;;;1.40;;
75608;SDS011;64194;51.044;13.780;2023-02-04T22:07:50;4.93;;;1.63;;
75608;SDS011;64194;51.044;13.780;2023-02-04T22:11:52;4.57;;;1.67;;
75608;SDS011;64194;51.044;13.780;2023-02-04T22:15:53;3.83;;;1.52;;
75608;SDS011;64194;51.044;13.780;2023-02-04T22:19:55;3.92;;;1.58;;
75608;SDS011;64194;51.044;13.780;2023-02-04T22:23:57;5.00;;;1.70;;
75608;SDS011;64194;51.044;13.780;2023-02-04T22:27:58;11.57;;;4.43;;
75608;SDS011;64194;51.044;13.780;2023-02-04T22:32:00;8.23;;;3.50;;
75608;SDS011;64194;51.044;13.780;2023-02-04T22:36:02;20.70;;;9.95;;
75608;SDS011;64194;51.044;13.780;2023-02-04T22:40:04;5.10;;;1.85;;
75608;SDS011;64194;51.044;13.780;2023-02-04T22:44:06;3.30;;;1.20;;
75608;SDS011;64194;51.044;13.780;2023-02-04T22:48:08;5.15;;;1.15;;
75608;SDS011;64194;51.044;13.780;2023-02-04T22:52:09;5.25;;;1.42;;
75608;SDS011;64194;51.044;13.780;2023-02-04T22:56:11;5.57;;;1.58;;
75608;SDS011;64194;51.044;13.780;2023-02-04T23:00:13;3.80;;;1.50;;
75608;SDS011;64194;51.044;13.780;2023-02-04T23:04:15;3.80;;;1.25;;
75608;SDS011;64194;51.044;13.780;2023-02-04T23:08:16;3.40;;;1.40;;
75608;SDS011;64194;51.044;13.780;2023-02-04T23:12:18;4.72;;;1.35;;
75608;SDS011;64194;51.044;13.780;2023-02-04T23:16:20;4.18;;;1.70;;
75608;SDS011;64194;51.044;13.780;2023-02-04T23:20:21;5.50;;;1.60;;
75608;SDS011;64194;51.044;13.780;2023-02-04T23:24:23;3.70;;;1.30;;
75608;SDS011;64194;51.044;13.780;2023-02-04T23:28:25;3.05;;;0.95;;
75608;SDS011;64194;51.044;13.780;2023-02-04T23:32:26;3.80;;;1.23;;
75608;SDS011;64194;51.044;13.780;2023-02-04T23:36:30;5.40;;;1.45;;
75608;SDS011;64194;51.044;13.780;2023-02-04T23:40:33;3.75;;;1.23;;
75608;SDS011;64194;51.044;13.780;2023-02-04T23:44:34;6.43;;;1.60;;
75608;SDS011;64194;51.044;13.780;2023-02-04T23:48:36;4.75;;;1.40;;
75608;SDS011;64194;51.044;13.780;2023-02-04T23:52:37;4.30;;;1.60;;
75608;SDS011;64194;51.044;13.780;2023-02-04T23:56:39;3.15;;;1.10;;
